createdAt,value
2019-03-18T00:01:35.327Z,94.57
2019-03-18T00:06:38.559Z,94.10
2019-03-18T00:11:41.516Z,94.31
2019-03-18T00:16:44.709Z,94.32
2019-03-18T00:21:47.245Z,93.53
2019-03-18T00:26:50.935Z,93.10
2019-03-18T00:31:54.498Z,92.87
2019-03-18T00:36:57.759Z,93.14
2019-03-18T00:42:00.584Z,93.61
2019-03-18T00:47:03.838Z,93.25
2019-03-18T00:52:07.038Z,93.52
2019-03-18T00:57:10.577Z,94.28
2019-03-18T01:02:13.753Z,93.35
2019-03-18T01:07:17.333Z,92.81
2019-03-18T01:12:20.181Z,92.58
2019-03-18T01:17:23.956Z,91.89
2019-03-18T01:22:27.601Z,92.09
2019-03-18T01:27:31.099Z,92.00
2019-03-18T01:32:34.358Z,91.86
2019-03-18T01:37:37.874Z,91.86
2019-03-18T01:42:41.579Z,91.69
2019-03-18T01:47:44.798Z,92.17
2019-03-18T01:52:48.312Z,91.78
2019-03-18T01:57:50.851Z,90.92
2019-03-18T02:02:52.994Z,90.98
2019-03-18T02:07:55.861Z,90.46
2019-03-18T02:12:58.692Z,90.52
2019-03-18T02:18:01.216Z,90.68
2019-03-18T02:23:03.989Z,90.72
2019-03-18T02:28:09.079Z,89.67
2019-03-18T02:33:12.562Z,88.81
2019-03-18T02:38:15.360Z,89.99
2019-03-18T02:43:18.853Z,90.62
2019-03-18T02:48:22.161Z,90.83
2019-03-18T02:53:25.102Z,90.12
2019-03-18T02:58:27.995Z,90.44
2019-03-18T03:03:31.511Z,89.09
2019-03-18T03:08:34.826Z,88.84
2019-03-18T03:13:38.330Z,88.11
2019-03-18T03:18:41.643Z,88.48
2019-03-18T03:23:44.848Z,88.04
2019-03-18T03:28:48.360Z,86.76
2019-03-18T03:33:51.488Z,86.71
2019-03-18T03:38:54.401Z,86.66
2019-03-18T03:43:57.610Z,86.42
2019-03-18T03:49:00.799Z,86.06
2019-03-18T03:54:03.724Z,85.78
2019-03-18T03:59:06.823Z,86.50
2019-03-18T04:04:10.042Z,88.64
2019-03-18T04:09:13.552Z,90.58
2019-03-18T04:14:16.776Z,89.94
2019-03-18T04:19:19.667Z,90.35
2019-03-18T04:24:22.533Z,89.91
2019-03-18T04:29:25.368Z,90.69
2019-03-18T04:34:28.380Z,90.35
2019-03-18T04:39:31.799Z,90.82
2019-03-18T04:44:34.997Z,90.49
2019-03-18T04:49:38.183Z,89.58
2019-03-18T04:54:40.666Z,90.13
2019-03-18T04:59:44.188Z,90.56
2019-03-18T05:04:46.734Z,90.34
2019-03-18T05:09:49.614Z,89.63
2019-03-18T05:14:52.819Z,88.99
2019-03-18T05:19:55.622Z,88.28
2019-03-18T05:24:59.129Z,87.80
2019-03-18T05:30:01.942Z,87.50
2019-03-18T05:35:05.312Z,87.96
2019-03-18T05:40:08.213Z,87.62
2019-03-18T05:45:11.464Z,88.11
2019-03-18T05:50:14.991Z,87.55
2019-03-18T05:55:17.571Z,87.25
2019-03-18T06:00:20.847Z,86.12
2019-03-18T06:05:24.023Z,86.11
2019-03-18T06:10:27.213Z,85.63
2019-03-18T06:15:30.373Z,85.57
2019-03-18T06:20:33.815Z,85.12
2019-03-18T06:25:37.054Z,85.16
2019-03-18T06:30:40.267Z,84.94
2019-03-18T06:35:43.467Z,85.58
2019-03-18T06:40:46.957Z,87.13
2019-03-18T06:45:50.208Z,86.81
2019-03-18T06:50:53.401Z,88.19
2019-03-18T06:55:56.292Z,86.90
2019-03-18T07:00:59.174Z,86.88
2019-03-18T07:06:02.689Z,87.45
2019-03-18T07:11:06.227Z,87.28
2019-03-18T07:16:09.151Z,87.17
2019-03-18T07:21:14.612Z,85.17
2019-03-18T07:26:16.799Z,84.69
2019-03-18T07:31:19.703Z,84.42
2019-03-18T07:36:22.595Z,83.43
2019-03-18T07:41:25.512Z,82.72
2019-03-18T07:46:28.709Z,83.98
2019-03-18T07:51:32.210Z,84.13
2019-03-18T07:56:35.373Z,83.23
2019-03-18T08:01:38.339Z,82.32
2019-03-18T08:06:41.243Z,81.87
2019-03-18T08:11:44.479Z,81.92
2019-03-18T08:16:47.630Z,81.88
2019-03-18T08:21:50.582Z,81.88
2019-03-18T08:26:54.078Z,80.13
2019-03-18T08:31:57.293Z,79.46
2019-03-18T08:37:00.534Z,79.30
2019-03-18T08:42:03.381Z,78.89
2019-03-18T08:47:06.639Z,77.69
2019-03-18T08:52:09.533Z,78.15
2019-03-18T08:57:12.421Z,78.71
2019-03-18T09:02:15.406Z,77.52
2019-03-18T09:07:18.982Z,77.85
2019-03-18T09:12:22.577Z,76.86
2019-03-18T09:17:25.470Z,76.57
2019-03-18T09:22:28.430Z,75.49
2019-03-18T09:27:31.685Z,75.95
2019-03-18T09:32:34.894Z,76.44
2019-03-18T09:37:37.905Z,76.09
2019-03-18T09:42:41.625Z,76.36
2019-03-18T09:47:44.897Z,75.21
2019-03-18T09:52:48.149Z,72.64
2019-03-18T09:57:51.659Z,71.81
2019-03-18T10:02:55.004Z,70.25
2019-03-18T10:07:57.872Z,70.90
2019-03-18T10:13:01.049Z,71.60
2019-03-18T10:18:04.317Z,71.49
2019-03-18T10:23:07.515Z,71.50
2019-03-18T10:28:10.408Z,71.35
2019-03-18T10:33:13.309Z,79.95
2019-03-18T10:38:16.534Z,77.81
2019-03-18T10:43:20.093Z,76.35
2019-03-18T10:48:23.356Z,73.84
2019-03-18T10:53:26.656Z,74.01
2019-03-18T10:58:29.197Z,74.57
2019-03-18T11:03:32.108Z,73.72
2019-03-18T11:08:35.345Z,72.99
2019-03-18T11:13:38.878Z,77.02
2019-03-18T11:18:42.093Z,83.61
2019-03-18T11:23:45.276Z,85.31
2019-03-18T11:28:48.837Z,85.80
2019-03-18T11:33:52.133Z,86.37
2019-03-18T11:38:55.329Z,87.00
2019-03-18T11:43:58.860Z,86.15
2019-03-18T11:49:02.057Z,86.22
2019-03-18T11:54:05.546Z,86.67
2019-03-18T11:59:08.798Z,83.00
2019-03-18T12:04:12.505Z,78.64
2019-03-18T12:09:15.110Z,73.99
2019-03-18T12:14:18.150Z,71.56
2019-03-18T12:19:23.130Z,68.86
2019-03-18T12:24:26.567Z,71.53
2019-03-18T12:29:29.589Z,70.75
2019-03-18T12:34:32.765Z,70.88
2019-03-18T12:39:36.335Z,71.21
2019-03-18T12:44:39.884Z,72.14
2019-03-18T12:49:42.835Z,73.13
2019-03-18T12:54:46.425Z,74.52
2019-03-18T12:59:49.324Z,75.73
2019-03-18T13:04:52.285Z,73.69
2019-03-18T13:09:55.177Z,71.29
2019-03-18T13:14:58.504Z,70.93
2019-03-18T13:20:01.799Z,70.76
2019-03-18T13:25:05.983Z,72.40
2019-03-18T13:30:11.353Z,74.00
2019-03-18T13:35:14.611Z,70.25
2019-03-18T13:40:18.006Z,65.54
2019-03-18T13:45:21.191Z,68.40
2019-03-18T13:50:24.352Z,68.07
2019-03-18T13:55:27.901Z,67.83
2019-03-18T14:00:31.309Z,67.31
2019-03-18T14:05:35.193Z,66.85
2019-03-18T14:10:38.091Z,66.84
2019-03-18T14:15:41.289Z,69.15
2019-03-18T14:20:44.518Z,76.19
2019-03-18T14:25:48.044Z,79.54
2019-03-18T14:30:50.948Z,73.33
2019-03-18T14:36:00.898Z,68.88
2019-03-18T14:41:04.429Z,64.81
2019-03-18T14:46:06.962Z,62.06
2019-03-18T14:51:10.240Z,59.25
2019-03-18T14:56:14.367Z,58.71
2019-03-18T15:01:17.647Z,55.72
2019-03-18T15:06:20.184Z,56.40
2019-03-18T15:11:23.429Z,54.77
2019-03-18T15:16:25.932Z,57.25
2019-03-18T15:21:29.495Z,58.56
2019-03-18T15:26:32.762Z,58.40
2019-03-18T15:31:35.616Z,65.13
2019-03-18T15:36:38.863Z,76.45
2019-03-18T15:41:41.763Z,74.23
2019-03-18T15:46:44.984Z,74.42
2019-03-18T15:51:48.286Z,71.95
2019-03-18T15:56:51.578Z,72.21
2019-03-18T16:01:54.806Z,73.26
2019-03-18T16:06:58.083Z,75.18
2019-03-18T16:12:01.097Z,73.70
2019-03-18T16:17:04.317Z,73.38
2019-03-18T16:22:07.711Z,72.94
2019-03-18T16:27:11.001Z,73.82
2019-03-18T16:32:14.195Z,69.88
2019-03-18T16:37:17.207Z,71.06
2019-03-18T16:42:20.740Z,72.36
2019-03-18T16:47:23.256Z,73.44
2019-03-18T16:52:35.164Z,74.73
2019-03-18T16:57:31.404Z,76.22
2019-03-18T17:02:36.729Z,76.73
2019-03-18T17:07:41.113Z,76.89
2019-03-18T17:12:44.079Z,75.67
2019-03-18T17:17:47.476Z,73.98
2019-03-18T17:22:51.058Z,74.42
2019-03-18T17:27:54.266Z,74.79
2019-03-18T17:32:57.474Z,75.43
2019-03-18T17:38:00.700Z,75.23
2019-03-18T17:43:03.965Z,74.68
2019-03-18T17:48:07.218Z,72.65
2019-03-18T17:53:10.697Z,72.87
2019-03-18T17:58:13.907Z,71.97
2019-03-18T18:03:18.245Z,72.33
2019-03-18T18:08:21.920Z,72.84
2019-03-18T18:13:25.211Z,72.52
2019-03-18T18:18:28.095Z,73.11
2019-03-18T18:23:32.214Z,72.95
2019-03-18T18:28:35.455Z,73.29
2019-03-18T18:33:40.906Z,72.90
2019-03-18T18:38:44.458Z,73.08
2019-03-18T18:43:48.171Z,73.41
2019-03-18T18:48:51.563Z,73.78
2019-03-18T18:53:54.918Z,74.42
2019-03-18T18:58:57.567Z,74.49
2019-03-18T19:04:01.232Z,74.16
2019-03-18T19:09:06.574Z,74.30
2019-03-18T19:14:10.589Z,74.57
2019-03-18T19:19:17.896Z,75.05
2019-03-18T19:24:25.337Z,74.60
2019-03-18T19:29:31.733Z,74.86
2019-03-18T19:34:40.436Z,75.04
2019-03-18T19:39:49.536Z,74.98
2019-03-18T19:45:03.579Z,74.67
2019-03-18T19:50:09.885Z,74.78
2019-03-18T19:55:17.823Z,73.65
2019-03-18T20:00:25.944Z,73.15
2019-03-18T20:05:36.815Z,72.71
2019-03-18T20:10:44.937Z,72.42
2019-03-18T20:15:52.546Z,72.50
2019-03-18T20:20:59.710Z,72.25
2019-03-18T20:26:08.551Z,73.02
2019-03-18T20:31:25.366Z,73.48
2019-03-18T20:36:26.413Z,73.37
2019-03-18T20:41:34.273Z,73.13
2019-03-18T20:46:40.930Z,73.90
2019-03-18T20:51:47.294Z,73.54
2019-03-18T20:56:53.709Z,73.67
2019-03-18T21:01:57.811Z,73.66
2019-03-18T21:07:01.313Z,74.19
2019-03-18T21:12:04.892Z,73.66
2019-03-18T21:17:08.315Z,73.06
2019-03-18T21:22:12.101Z,72.69
2019-03-18T21:27:15.316Z,80.76
2019-03-18T21:32:18.619Z,65.39
2019-03-18T21:37:21.896Z,69.56
2019-03-18T21:42:25.458Z,71.41
2019-03-18T21:47:29.040Z,72.49
2019-03-18T21:52:32.538Z,72.73
2019-03-18T21:57:35.510Z,72.68
2019-03-18T22:02:38.820Z,72.57
2019-03-18T22:07:42.080Z,73.12
2019-03-18T22:12:46.291Z,73.42
2019-03-18T22:17:49.325Z,73.76
2019-03-18T22:22:53.798Z,74.06
2019-03-18T22:27:57.308Z,74.13
2019-03-18T22:33:01.991Z,73.92
2019-03-18T22:38:05.390Z,74.29
2019-03-18T22:43:08.279Z,73.74
2019-03-18T22:48:11.937Z,73.79
2019-03-18T22:53:15.513Z,74.42
2019-03-18T22:58:19.486Z,74.28
2019-03-18T23:03:23.165Z,74.30
2019-03-18T23:08:26.881Z,74.33
2019-03-18T23:13:30.395Z,74.47
2019-03-18T23:18:33.284Z,74.18
2019-03-18T23:23:36.872Z,74.66
2019-03-18T23:28:40.545Z,74.85
2019-03-18T23:33:44.117Z,74.79
2019-03-18T23:38:47.066Z,74.98
2019-03-18T23:43:49.554Z,74.81
2019-03-18T23:48:52.697Z,74.85
2019-03-18T23:53:56.276Z,74.57
2019-03-18T23:58:59.745Z,74.35
